Gallatin Gateway, MT

10:44 PM MDT on September 30, 2014 (GMT -0600)
MesoWest BEAVER CREEK MT US SNOTEL | Change Station
CLOSE
Current Station
Personal Weather Station
Location: Cameron, MT
Elevation: 7850 ft
Nearby Weather Stations

Elev 7850 ft 44.95 °N, 111.36 °W | Updated 76 days ago

Snow
Snow
32 °F
Feels Like 32 °F
N
5
Wind Variable Wind from NW
Gusts 7 mph

Today
High -- | Low -- °F
--% Chance of Precip.
Yesterday
High -- | Low -- °F
Precip. -- in
7:22 AM 7:07 PM
Waxing Crescent, 43% visible
Pressure 29.93 in
Visibility 8.0 miles
Clouds Mostly Cloudy 1900 ft
Mostly Cloudy 2600 ft
Mostly Cloudy 3500 ft
Dew Point 30 °F
Humidity 89%
Rainfall 0.01 in
Snow Depth 0 in , 0 in , 0 in
UV 0 out of 12
Pollen 3.80 out of 12
Air Quality Not available.
Flu Activity Not available.
METAR KWYS 010435Z AUTO 17003KT 8SM -RA BKN019 BKN026 BKN035 04/03 A2993 RMK AO2 P0001

More Conditions Fewer Conditions

Pressure 29.93 in
Visibility 8.0 miles
Clouds Mostly Cloudy 1900 ft
Mostly Cloudy 2600 ft
Mostly Cloudy 3500 ft
Dew Point 30 °F
Humidity 89%
Rainfall 0.01 in
Snow Depth 0 in , 0 in , 0 in
UV 0 out of 12
Pollen 3.80 out of 12
Air Quality Not available.
Flu Activity Not available.
METAR KWYS 010435Z AUTO 17003KT 8SM -RA BKN019 BKN026 BKN035 04/03 A2993 RMK AO2 P0001

More Conditions Fewer Conditions

10-Day Weather Forecast

Almanac

Astronomy

Sep. 30, 2014 Rise Set
Actual Time 7:22 AM MDT 7:07 PM MDT
Civil Twilight 6:53 AM MDT 7:36 PM MDT
Nautical Twilight 6:18 AM MDT 8:10 PM MDT
Astronomical Twilight 5:44 AM MDT 8:45 PM MDT
Moon 1:45 PM MDT (9/30) 11:29 PM MDT (9/30)
Length of Visible Light 12h 43m
Length of Day
11h 45m
Tomorrow will be 3m 5s shorter.
Waxing Crescent, 43% of the Moon is Illuminated
Oct 1
Waxing Crescent
Oct 1
First Quarter
Oct 8
Full
Oct 15
Last Quarter
Oct 23
New

Yesterday's Extremes

State Highs State Lows

Community

WunderPhotos

Upload Photos

1,757,847 photos uploaded!

Nearby

Snow Depth

Station Depth Elevation
Tizer Basin 0 in 6840 ft
Twelvemile Creek 0 in 5600 ft
Copper Camp 0 in 6950 ft
North Fork Jocko 0 in 6330 ft
Black Bear 0 in 8150 ft

Earthquake Activity

City Distance Mag. Time & Date
No recent earthquake activity has been reported nearby.
Minimum magnitude displayed is 2.5.

Coastal Water Temperatures

Place Temperature
No Stations Reporting

Nearby Weather Stations